Terminal Aerodrome Forecast
Issued by NWS Grand Forks, ND

Home | Current Version | Previous Version | Text Only | Print | Product List | Glossary On
Versions: 1 2 3 4 5 6 7 8 9 10 11 12 13 14 15 16
391
FTUS43 KFGF 201734
TAFGFK
TAF
KGFK 201734Z 2018/2118 VRB03KT P6SM FEW080
     FM210200 10006KT P6SM BKN080
     FM211400 13010KT P6SM SCT070
     FM211700 15009KT P6SM BKN070=

USA.gov is the U.S. government's official web portal to all federal, state and local government web resources and services.